Terminal Aerodrome Forecast
Issued by NWS

Home | Current Version | Previous Version | Text Only | Print | Product List | Glossary On
Versions: 1 2 3 4 5 6 7 8 9 10 11 12 13 14 15 16
000
FTUS46 KMTR 170500
TAFSNS
TAF
KSNS 170520Z 1706/1806 29007KT P6SM SKC
     FM170800 VRB03KT P6SM OVC006
     FM171700 29011KT P6SM FEW012
     FM180300 24004KT P6SM SCT010=

USA.gov is the U.S. government's official web portal to all federal, state and local government web resources and services.